createdAt,value
2019-01-12T00:00:47.655Z,7.67
2019-01-12T00:03:37.660Z,7.67
2019-01-12T00:06:27.949Z,7.68
2019-01-12T00:09:17.551Z,7.73
2019-01-12T00:12:07.614Z,7.69
2019-01-12T00:14:57.440Z,7.73
2019-01-12T00:17:47.252Z,7.73
2019-01-12T00:20:37.250Z,7.75
2019-01-12T00:23:26.849Z,7.77
2019-01-12T00:26:17.131Z,7.76
2019-01-12T00:29:07.143Z,7.79
2019-01-12T00:31:57.211Z,7.81
2019-01-12T00:34:47.118Z,7.84
2019-01-12T00:37:37.260Z,7.81
2019-01-12T00:40:27.749Z,7.79
2019-01-12T00:43:17.568Z,7.82
2019-01-12T00:46:07.302Z,7.84
2019-01-12T00:48:57.514Z,7.83
2019-01-12T00:51:48.209Z,7.86
2019-01-12T00:54:38.602Z,7.88
2019-01-12T00:57:28.994Z,7.89
2019-01-12T01:00:21.616Z,7.91
2019-01-12T01:03:11.254Z,7.92
2019-01-12T01:06:01.454Z,7.93
2019-01-12T01:08:51.705Z,7.94
2019-01-12T01:11:41.628Z,7.92
2019-01-12T01:14:31.524Z,7.97
2019-01-12T01:17:21.398Z,7.96
2019-01-12T01:20:12.507Z,8.01
2019-01-12T01:23:02.393Z,8.02
2019-01-12T01:25:52.134Z,8.02
2019-01-12T01:28:41.916Z,8.04
2019-01-12T01:31:31.884Z,8.04
2019-01-12T01:34:22.205Z,8.01
2019-01-12T01:37:12.252Z,8.03
2019-01-12T01:40:02.281Z,8.03
2019-01-12T01:42:52.271Z,8.05
2019-01-12T01:45:41.747Z,8.09
2019-01-12T01:48:32.110Z,8.04
2019-01-12T01:51:22.084Z,8.06
2019-01-12T01:54:11.966Z,8.11
2019-01-12T01:57:01.443Z,8.11
2019-01-12T01:59:51.283Z,8.16
2019-01-12T02:02:40.966Z,8.19
2019-01-12T02:05:30.728Z,8.18
2019-01-12T02:08:20.639Z,8.17
2019-01-12T02:11:10.582Z,8.17
2019-01-12T02:14:00.956Z,8.19
2019-01-12T02:16:51.031Z,8.17
2019-01-12T02:19:41.306Z,8.19
2019-01-12T02:22:30.826Z,8.20
2019-01-12T02:25:21.393Z,8.18
2019-01-12T02:28:11.894Z,8.20
2019-01-12T02:31:01.821Z,8.23
2019-01-12T02:33:51.583Z,8.22
2019-01-12T02:36:41.730Z,8.24
2019-01-12T02:39:31.866Z,8.22
2019-01-12T02:42:22.130Z,8.24
2019-01-12T02:45:12.283Z,8.26
2019-01-12T02:48:02.584Z,8.27
2019-01-12T02:50:52.585Z,8.30
2019-01-12T02:53:42.292Z,8.27
2019-01-12T02:56:32.387Z,8.28
2019-01-12T02:59:21.943Z,8.26
2019-01-12T03:02:11.741Z,8.26
2019-01-12T03:05:01.886Z,8.25
2019-01-12T03:07:51.995Z,8.26
2019-01-12T03:10:42.185Z,8.24
2019-01-12T03:13:32.267Z,8.22
2019-01-12T03:16:22.123Z,8.24
2019-01-12T03:19:11.944Z,8.25
2019-01-12T03:22:02.966Z,8.24
2019-01-12T03:24:52.998Z,8.21
2019-01-12T03:27:43.145Z,8.24
2019-01-12T03:30:35.958Z,8.26
2019-01-12T03:33:24.468Z,8.26
2019-01-12T03:36:14.683Z,8.26
2019-01-12T03:39:06.875Z,8.27
2019-01-12T03:41:56.755Z,8.32
2019-01-12T03:44:47.048Z,8.31
2019-01-12T03:47:37.283Z,8.35
2019-01-12T03:50:26.921Z,8.37
2019-01-12T03:53:16.632Z,8.37
2019-01-12T03:56:07.026Z,8.33
2019-01-12T03:58:57.263Z,8.34
2019-01-12T04:01:46.999Z,8.33
2019-01-12T04:04:38.015Z,8.34
2019-01-12T04:07:27.633Z,8.34
2019-01-12T04:10:17.815Z,8.37
2019-01-12T04:13:07.764Z,8.36
2019-01-12T04:15:57.361Z,8.35
2019-01-12T04:18:47.367Z,8.37
2019-01-12T04:21:37.327Z,8.33
2019-01-12T04:24:27.526Z,8.37
2019-01-12T04:27:17.649Z,8.31
2019-01-12T04:30:16.518Z,8.32
2019-01-12T04:33:06.357Z,8.33
2019-01-12T04:35:56.145Z,8.31
2019-01-12T04:38:45.975Z,8.34
2019-01-12T04:41:35.898Z,8.38
2019-01-12T04:44:25.716Z,8.36
2019-01-12T04:47:15.284Z,8.38
2019-01-12T04:50:08.211Z,8.39
2019-01-12T04:52:57.536Z,8.38
2019-01-12T04:55:47.499Z,8.38
2019-01-12T04:58:36.910Z,8.38
2019-01-12T05:01:26.530Z,8.36
2019-01-12T05:04:16.335Z,8.33
2019-01-12T05:07:06.544Z,8.31
2019-01-12T05:09:56.469Z,8.32
2019-01-12T05:12:46.482Z,8.32
2019-01-12T05:15:36.258Z,8.31
2019-01-12T05:18:25.791Z,8.31
2019-01-12T05:21:15.645Z,8.31
2019-01-12T05:24:06.279Z,8.32
2019-01-12T05:26:56.389Z,8.32
2019-01-12T05:29:46.478Z,8.34
2019-01-12T05:32:36.704Z,8.32
2019-01-12T05:35:27.122Z,8.32
2019-01-12T05:38:17.387Z,8.30
2019-01-12T05:41:07.285Z,8.32
2019-01-12T05:43:56.847Z,8.32
2019-01-12T05:46:48.229Z,8.32
2019-01-12T05:49:37.984Z,8.33
2019-01-12T05:52:28.184Z,8.33
2019-01-12T05:55:17.937Z,8.38
2019-01-12T05:58:07.986Z,8.36
2019-01-12T06:00:58.034Z,8.41
2019-01-12T06:03:47.462Z,8.42
2019-01-12T06:06:37.538Z,8.40
2019-01-12T06:09:27.699Z,8.40
2019-01-12T06:12:17.737Z,8.35
2019-01-12T06:15:09.077Z,8.38
2019-01-12T06:17:59.191Z,8.40
2019-01-12T06:20:48.940Z,8.40
2019-01-12T06:23:39.064Z,8.39
2019-01-12T06:26:29.366Z,8.43
2019-01-12T06:29:18.819Z,8.41
2019-01-12T06:32:09.867Z,8.39
2019-01-12T06:34:59.982Z,8.39
2019-01-12T06:37:50.090Z,8.36
2019-01-12T06:40:40.017Z,8.33
2019-01-12T06:43:30.213Z,8.29
2019-01-12T06:46:20.076Z,8.28
2019-01-12T06:49:09.837Z,8.26
2019-01-12T06:51:59.930Z,8.26
2019-01-12T06:54:50.075Z,8.25
2019-01-12T06:57:39.493Z,8.24
2019-01-12T07:00:29.249Z,8.27
2019-01-12T07:03:19.335Z,8.26
2019-01-12T07:06:09.177Z,8.25
2019-01-12T07:08:59.139Z,8.26
2019-01-12T07:11:49.316Z,8.27
2019-01-12T07:14:39.270Z,8.25
2019-01-12T07:17:29.476Z,8.25
2019-01-12T07:20:19.608Z,8.25
2019-01-12T07:23:09.524Z,8.27
2019-01-12T07:26:00.001Z,8.26
2019-01-12T07:28:49.825Z,8.24
2019-01-12T07:31:39.986Z,8.25
2019-01-12T07:34:29.954Z,8.27
2019-01-12T07:37:20.271Z,8.28
2019-01-12T07:40:10.895Z,8.26
2019-01-12T07:43:00.801Z,8.28
2019-01-12T07:45:50.920Z,8.25
2019-01-12T07:48:40.947Z,8.25
2019-01-12T07:51:31.088Z,8.25
2019-01-12T07:54:20.993Z,8.25
2019-01-12T07:57:11.068Z,8.17
2019-01-12T08:00:02.007Z,8.16
2019-01-12T08:02:53.337Z,8.13
2019-01-12T08:05:43.653Z,8.12
2019-01-12T08:08:33.796Z,8.13
2019-01-12T08:11:24.484Z,8.15
2019-01-12T08:14:14.285Z,8.10
2019-01-12T08:17:04.251Z,8.13
2019-01-12T08:19:54.311Z,8.14
2019-01-12T08:22:44.937Z,8.15
2019-01-12T08:25:35.142Z,8.16
2019-01-12T08:28:25.006Z,8.19
2019-01-12T08:31:15.278Z,8.20
2019-01-12T08:34:05.364Z,8.24
2019-01-12T08:36:55.235Z,8.22
2019-01-12T08:39:45.029Z,8.26
2019-01-12T08:42:35.041Z,8.28
2019-01-12T08:45:24.994Z,8.24
2019-01-12T08:48:15.011Z,8.29
2019-01-12T08:51:05.083Z,8.27
2019-01-12T08:53:55.662Z,8.33
2019-01-12T08:56:45.828Z,8.34
2019-01-12T08:59:35.485Z,8.38
2019-01-12T09:02:25.019Z,8.39
2019-01-12T09:05:15.284Z,8.41
2019-01-12T09:08:05.562Z,8.46
2019-01-12T09:10:55.792Z,8.45
2019-01-12T09:13:47.496Z,8.48
2019-01-12T09:16:37.559Z,8.47
2019-01-12T09:19:27.644Z,8.50
2019-01-12T09:22:17.826Z,8.50
2019-01-12T09:25:09.660Z,8.44
2019-01-12T09:27:59.434Z,8.46
2019-01-12T09:30:49.415Z,8.49
2019-01-12T09:33:39.180Z,8.53
2019-01-12T09:36:29.224Z,8.49
2019-01-12T09:39:18.957Z,8.49
2019-01-12T09:42:08.808Z,8.55
2019-01-12T09:44:58.952Z,8.55
2019-01-12T09:47:49.076Z,8.64
2019-01-12T09:50:39.133Z,8.63
2019-01-12T09:53:29.068Z,8.65
2019-01-12T09:56:19.028Z,8.68
2019-01-12T09:59:09.056Z,8.70
2019-01-12T10:01:58.851Z,8.73
2019-01-12T10:04:48.626Z,8.83
2019-01-12T10:07:38.656Z,8.90
2019-01-12T10:10:27.808Z,9.04
2019-01-12T10:13:17.272Z,9.08
2019-01-12T10:16:06.932Z,9.14
2019-01-12T10:18:56.755Z,9.31
2019-01-12T10:21:46.843Z,9.43
2019-01-12T10:24:36.716Z,9.61
2019-01-12T10:27:26.663Z,9.85
2019-01-12T10:30:27.406Z,10.20
2019-01-12T10:33:16.757Z,10.43
2019-01-12T10:36:07.447Z,10.50
2019-01-12T10:38:57.810Z,10.52
2019-01-12T10:41:47.646Z,10.51
2019-01-12T10:44:37.846Z,10.38
2019-01-12T10:47:27.577Z,10.28
2019-01-12T10:50:28.073Z,10.18
2019-01-12T10:53:17.452Z,10.07
2019-01-12T10:56:07.039Z,10.03
2019-01-12T10:58:57.416Z,9.98
2019-01-12T11:01:47.374Z,9.95
2019-01-12T11:04:37.660Z,9.91
2019-01-12T11:07:27.667Z,9.88
2019-01-12T11:10:17.899Z,9.80
2019-01-12T11:13:08.289Z,9.76
2019-01-12T11:15:58.357Z,9.73
2019-01-12T11:18:48.138Z,9.71
2019-01-12T11:21:37.923Z,9.60
2019-01-12T11:24:27.886Z,9.48
2019-01-12T11:27:17.462Z,9.41
2019-01-12T11:30:11.631Z,9.35
2019-01-12T11:33:02.046Z,9.30
2019-01-12T11:35:52.126Z,9.26
2019-01-12T11:38:42.416Z,9.23
2019-01-12T11:41:32.743Z,9.19
2019-01-12T11:44:22.525Z,9.22
2019-01-12T11:47:12.646Z,9.19
2019-01-12T11:50:05.365Z,9.12
2019-01-12T11:52:55.225Z,9.22
2019-01-12T11:55:45.130Z,9.30
2019-01-12T11:58:35.422Z,9.35
2019-01-12T12:01:26.478Z,9.28
2019-01-12T12:04:16.699Z,9.23
2019-01-12T12:07:06.824Z,9.14
2019-01-12T12:09:57.046Z,9.11
2019-01-12T12:12:46.979Z,9.04
2019-01-12T12:15:37.105Z,9.03
2019-01-12T12:18:26.878Z,9.02
2019-01-12T12:21:16.736Z,8.97
2019-01-12T12:24:06.750Z,8.97
2019-01-12T12:26:57.158Z,9.01
2019-01-12T12:29:47.008Z,8.98
2019-01-12T12:32:37.402Z,9.01
2019-01-12T12:35:27.219Z,8.97
2019-01-12T12:38:16.819Z,8.98
2019-01-12T12:41:06.969Z,8.94
2019-01-12T12:43:56.791Z,8.95
2019-01-12T12:46:46.888Z,8.94
2019-01-12T12:49:36.827Z,8.92
2019-01-12T12:52:26.226Z,8.93
2019-01-12T12:55:17.177Z,8.96
2019-01-12T12:58:07.433Z,8.96
2019-01-12T13:00:57.398Z,8.92
2019-01-12T13:03:47.390Z,8.97
2019-01-12T13:06:37.801Z,8.96
2019-01-12T13:09:28.090Z,8.94
2019-01-12T13:12:18.338Z,8.95
2019-01-12T13:15:08.591Z,8.92
2019-01-12T13:17:58.580Z,8.89
2019-01-12T13:20:48.461Z,8.96
2019-01-12T13:23:39.120Z,8.97
2019-01-12T13:26:29.310Z,8.90
2019-01-12T13:29:19.679Z,8.93
2019-01-12T13:32:10.812Z,8.92
2019-01-12T13:35:00.390Z,8.90
2019-01-12T13:37:50.633Z,8.91
2019-01-12T13:40:40.727Z,8.83
2019-01-12T13:43:30.833Z,8.79
2019-01-12T13:46:21.057Z,8.78
2019-01-12T13:49:11.167Z,8.78
2019-01-12T13:52:01.068Z,8.75
2019-01-12T13:54:51.088Z,8.75
2019-01-12T13:57:47.539Z,8.67
2019-01-12T14:00:37.819Z,8.66
2019-01-12T14:03:28.050Z,8.63
2019-01-12T14:06:18.073Z,8.60
2019-01-12T14:09:10.000Z,8.55
2019-01-12T14:11:59.806Z,8.57
2019-01-12T14:14:49.338Z,8.47
2019-01-12T14:17:39.235Z,8.42
2019-01-12T14:20:39.330Z,8.37
2019-01-12T14:23:29.024Z,8.29
2019-01-12T14:26:19.228Z,8.10
2019-01-12T14:29:08.957Z,8.08
2019-01-12T14:31:59.082Z,7.96
2019-01-12T14:34:49.164Z,7.89
2019-01-12T14:37:38.958Z,7.79
2019-01-12T14:40:28.788Z,7.78
2019-01-12T14:43:18.923Z,7.76
2019-01-12T14:46:08.886Z,7.69
2019-01-12T14:48:59.303Z,7.68
2019-01-12T14:51:49.426Z,7.66
2019-01-12T14:54:39.633Z,7.65
2019-01-12T14:57:29.870Z,7.63
2019-01-12T15:00:22.819Z,7.59
2019-01-12T15:03:12.977Z,7.55
2019-01-12T15:06:03.082Z,7.53
2019-01-12T15:08:53.087Z,7.49
2019-01-12T15:11:43.601Z,7.47
2019-01-12T15:14:33.683Z,7.37
2019-01-12T15:17:23.823Z,7.36
2019-01-12T15:20:17.809Z,7.37
2019-01-12T15:23:07.275Z,7.33
2019-01-12T15:25:57.004Z,7.34
2019-01-12T15:28:46.806Z,7.37
2019-01-12T15:31:36.591Z,7.32
2019-01-12T15:34:26.845Z,7.30
2019-01-12T15:37:16.768Z,7.31
2019-01-12T15:40:08.901Z,7.35
2019-01-12T15:42:59.011Z,7.34
2019-01-12T15:45:49.636Z,7.35
2019-01-12T15:48:39.758Z,7.36
2019-01-12T15:51:29.696Z,7.35
2019-01-12T15:54:19.705Z,7.33
2019-01-12T15:57:09.643Z,7.35
2019-01-12T15:59:59.646Z,7.37
2019-01-12T16:02:49.810Z,7.35
2019-01-12T16:05:40.468Z,7.35
2019-01-12T16:08:30.198Z,7.33
2019-01-12T16:11:20.343Z,7.34
2019-01-12T16:14:10.522Z,7.36
2019-01-12T16:17:00.471Z,7.35
2019-01-12T16:19:50.489Z,7.33
2019-01-12T16:22:40.570Z,7.31
2019-01-12T16:25:30.684Z,7.35
2019-01-12T16:28:23.354Z,7.31
2019-01-12T16:31:14.614Z,7.36
2019-01-12T16:34:04.368Z,7.38
2019-01-12T16:36:53.821Z,7.43
2019-01-12T16:39:44.460Z,7.40
2019-01-12T16:42:34.735Z,7.44
2019-01-12T16:45:24.817Z,7.45
2019-01-12T16:48:14.709Z,7.49
2019-01-12T16:51:04.822Z,7.52
2019-01-12T16:53:54.750Z,7.50
2019-01-12T16:56:44.882Z,7.49
2019-01-12T16:59:34.391Z,7.48
2019-01-12T17:02:24.277Z,7.48
2019-01-12T17:05:13.504Z,7.49
2019-01-12T17:08:05.422Z,7.56
2019-01-12T17:10:55.327Z,7.56
2019-01-12T17:13:45.138Z,7.53
2019-01-12T17:16:34.955Z,7.49
2019-01-12T17:19:24.588Z,7.41
2019-01-12T17:22:14.891Z,7.41
2019-01-12T17:25:05.284Z,7.44
2019-01-12T17:27:55.476Z,7.40
2019-01-12T17:30:45.735Z,7.41
2019-01-12T17:33:35.942Z,7.43
2019-01-12T17:36:25.678Z,7.39
2019-01-12T17:39:15.713Z,7.40
2019-01-12T17:42:06.172Z,7.41
2019-01-12T17:44:56.160Z,7.39
2019-01-12T17:47:46.093Z,7.39
2019-01-12T17:50:35.871Z,7.43
2019-01-12T17:53:25.960Z,7.37
2019-01-12T17:56:15.748Z,7.40
2019-01-12T17:59:05.442Z,7.47
2019-01-12T18:01:55.957Z,7.52
2019-01-12T18:04:45.871Z,7.53
2019-01-12T18:07:35.970Z,7.50
2019-01-12T18:10:25.914Z,7.53
2019-01-12T18:13:16.241Z,7.56
2019-01-12T18:16:06.842Z,7.59
2019-01-12T18:18:56.130Z,7.63
2019-01-12T18:21:45.841Z,7.61
2019-01-12T18:24:35.756Z,7.62
2019-01-12T18:27:25.573Z,7.63
2019-01-12T18:30:19.241Z,7.60
2019-01-12T18:33:09.277Z,7.62
2019-01-12T18:35:58.990Z,7.64
2019-01-12T18:38:50.888Z,7.68
2019-01-12T18:41:40.943Z,7.70
2019-01-12T18:44:30.987Z,7.77
2019-01-12T18:47:21.103Z,7.78
2019-01-12T18:50:26.997Z,7.81
2019-01-12T18:53:17.186Z,7.79
2019-01-12T18:56:07.152Z,7.83
2019-01-12T18:58:59.045Z,7.81
2019-01-12T19:01:49.378Z,7.86
2019-01-12T19:04:39.522Z,7.89
2019-01-12T19:07:29.479Z,7.91
2019-01-12T19:10:19.607Z,7.92
2019-01-12T19:13:09.838Z,7.94
2019-01-12T19:15:59.746Z,8.01
2019-01-12T19:18:49.928Z,7.99
2019-01-12T19:21:40.241Z,7.98
2019-01-12T19:24:30.261Z,7.99
2019-01-12T19:27:20.261Z,8.06
2019-01-12T19:30:19.871Z,8.11
2019-01-12T19:33:09.315Z,8.02
2019-01-12T19:36:01.534Z,8.09
2019-01-12T19:38:50.983Z,8.17
2019-01-12T19:41:40.857Z,8.21
2019-01-12T19:44:30.821Z,8.15
2019-01-12T19:47:21.472Z,8.17
2019-01-12T19:50:15.344Z,8.21
2019-01-12T19:53:05.430Z,8.24
2019-01-12T19:55:55.612Z,8.22
2019-01-12T19:58:45.498Z,8.24
2019-01-12T20:01:35.558Z,8.22
2019-01-12T20:04:25.808Z,8.26
2019-01-12T20:07:15.871Z,8.27
2019-01-12T20:10:10.831Z,8.30
2019-01-12T20:13:01.199Z,8.28
2019-01-12T20:15:51.092Z,8.29
2019-01-12T20:18:41.485Z,8.31
2019-01-12T20:21:31.070Z,8.25
2019-01-12T20:24:20.806Z,8.23
2019-01-12T20:27:10.795Z,8.27
2019-01-12T20:30:00.649Z,8.25
2019-01-12T20:34:08.668Z,8.27
2019-01-12T20:37:16.025Z,8.20
2019-01-12T20:40:43.010Z,8.19
2019-01-12T20:44:05.666Z,8.15
2019-01-12T20:47:30.847Z,8.13
2019-01-12T20:51:10.644Z,8.08
2019-01-12T20:54:35.274Z,8.06
2019-01-12T20:58:12.787Z,8.06
2019-01-12T21:01:36.233Z,8.05
2019-01-12T21:05:06.260Z,8.06
2019-01-12T21:08:50.720Z,8.04
2019-01-12T21:12:27.505Z,8.00
2019-01-12T21:15:27.932Z,7.98
2019-01-12T21:18:18.036Z,7.97
2019-01-12T21:21:08.000Z,8.02
2019-01-12T21:23:58.134Z,8.03
2019-01-12T21:26:47.694Z,8.08
2019-01-12T21:29:37.475Z,8.13
2019-01-12T21:32:27.596Z,8.11
2019-01-12T21:35:17.947Z,8.13
2019-01-12T21:38:08.270Z,8.09
2019-01-12T21:40:58.310Z,8.05
2019-01-12T21:43:48.387Z,8.09
2019-01-12T21:46:38.182Z,8.05
2019-01-12T21:49:28.123Z,8.05
2019-01-12T21:52:17.949Z,8.12
2019-01-12T21:55:08.623Z,8.09
2019-01-12T21:57:58.367Z,8.11
2019-01-12T22:00:48.264Z,8.09
2019-01-12T22:03:38.399Z,8.16
2019-01-12T22:06:28.160Z,8.17
2019-01-12T22:09:17.987Z,8.16
2019-01-12T22:12:07.869Z,8.17
2019-01-12T22:14:57.855Z,8.16
2019-01-12T22:17:47.689Z,8.13
2019-01-12T22:20:37.774Z,8.13
2019-01-12T22:23:28.018Z,8.16
2019-01-12T22:26:18.003Z,8.15
2019-01-12T22:29:07.800Z,8.14
2019-01-12T22:31:58.678Z,8.12
2019-01-12T22:34:48.643Z,8.15
2019-01-12T22:37:38.885Z,8.12
2019-01-12T22:40:29.192Z,8.11
2019-01-12T22:43:18.992Z,8.10
2019-01-12T22:46:08.945Z,8.11
2019-01-12T22:48:59.155Z,8.12
2019-01-12T22:51:49.081Z,8.17
2019-01-12T22:54:39.027Z,8.14
2019-01-12T22:57:29.054Z,8.14
2019-01-12T23:00:33.603Z,8.17
2019-01-12T23:03:24.565Z,8.19
2019-01-12T23:06:14.714Z,8.20
2019-01-12T23:09:08.781Z,8.22
2019-01-12T23:11:58.848Z,8.18
2019-01-12T23:14:48.848Z,8.17
2019-01-12T23:17:39.150Z,8.22
2019-01-12T23:20:28.945Z,8.23
2019-01-12T23:23:18.785Z,8.28
2019-01-12T23:26:08.981Z,8.27
2019-01-12T23:28:59.038Z,8.29
2019-01-12T23:31:49.336Z,8.30
2019-01-12T23:34:40.826Z,8.29
2019-01-12T23:37:30.656Z,8.32
2019-01-12T23:40:21.092Z,8.33
2019-01-12T23:43:11.190Z,8.28
2019-01-12T23:46:01.168Z,8.30
2019-01-12T23:48:51.033Z,8.32
2019-01-12T23:51:41.481Z,8.30
2019-01-12T23:54:31.448Z,8.34
2019-01-12T23:57:21.314Z,8.35
